createdAt,value
2022-12-25T00:02:18.046Z,101347.50
2022-12-25T00:04:46.199Z,101343.97
2022-12-25T00:07:14.053Z,101341.41
2022-12-25T00:09:42.100Z,101337.13
2022-12-25T00:12:11.433Z,101344.28
2022-12-25T00:14:39.545Z,101338.06
2022-12-25T00:17:07.550Z,101341.63
2022-12-25T00:19:35.682Z,101342.47
2022-12-25T00:22:03.594Z,101347.72
2022-12-25T00:24:31.674Z,101348.59
2022-12-25T00:26:59.817Z,101352.88
2022-12-25T00:29:29.833Z,101348.38
2022-12-25T00:31:57.902Z,101342.03
2022-12-25T00:34:25.853Z,101347.31
2022-12-25T00:36:53.949Z,101351.59
2022-12-25T00:39:21.942Z,101349.78
2022-12-25T00:42:07.185Z,101349.78
2022-12-25T00:44:36.758Z,101351.59
2022-12-25T00:47:05.458Z,101345.16
2022-12-25T00:49:33.409Z,101345.16
2022-12-25T00:52:01.327Z,101346.03
2022-12-25T00:54:29.349Z,101342.34
2022-12-25T00:56:57.408Z,101345.94
2022-12-25T00:59:25.454Z,101351.22
2022-12-25T01:01:55.000Z,101349.47
2022-12-25T01:04:23.085Z,101346.69
2022-12-25T01:06:51.048Z,101346.69
2022-12-25T01:09:36.410Z,101346.69
2022-12-25T01:12:04.666Z,101351.22
2022-12-25T01:14:32.670Z,101359.16
2022-12-25T01:17:02.054Z,101349.16
2022-12-25T01:19:30.049Z,101352.81
2022-12-25T01:21:58.140Z,101359.78
2022-12-25T01:24:26.139Z,101361.69
2022-12-25T01:26:55.008Z,101358.94
2022-12-25T01:29:23.036Z,101362.38
2022-12-25T01:31:51.002Z,101371.16
2022-12-25T01:34:20.361Z,101362.25
2022-12-25T01:36:48.440Z,101371.16
2022-12-25T01:39:16.354Z,101379.22
2022-12-25T01:41:45.365Z,101381.81
2022-12-25T01:44:46.712Z,101381.69
2022-12-25T01:47:16.090Z,101385.31
2022-12-25T01:49:49.536Z,101388.78
2022-12-25T01:52:24.157Z,101386.94
2022-12-25T01:54:56.657Z,101394.78
2022-12-25T01:57:28.324Z,101392.09
2022-12-25T01:59:57.493Z,101394.78
2022-12-25T02:02:26.162Z,101372.56
2022-12-25T02:05:01.041Z,101393.69
2022-12-25T02:07:30.841Z,101389.41
2022-12-25T02:09:58.849Z,101399.06
2022-12-25T02:12:29.349Z,101397.16
2022-12-25T02:15:05.345Z,101396.09
2022-12-25T02:17:39.915Z,101389.72
2022-12-25T02:20:49.059Z,101390.59
2022-12-25T02:23:40.670Z,101386.19
2022-12-25T02:26:18.021Z,101392.41
2022-12-25T02:28:57.514Z,101403.91
2022-12-25T02:31:33.555Z,101396.72
2022-12-25T02:34:10.669Z,101398.44
2022-12-25T02:36:46.199Z,101391.47
2022-12-25T02:39:38.396Z,101398.53
2022-12-25T02:42:11.535Z,101400.38
2022-12-25T02:45:01.993Z,101404.00
2022-12-25T02:47:48.402Z,101400.69
2022-12-25T02:50:35.169Z,101402.53
2022-12-25T02:53:22.400Z,101399.94
2022-12-25T02:56:09.239Z,101400.25
2022-12-25T02:58:58.496Z,101399.50
2022-12-25T03:01:49.847Z,101402.06
2022-12-25T03:04:40.846Z,101404.69
2022-12-25T03:07:12.621Z,101399.31
2022-12-25T03:10:09.887Z,101401.22
2022-12-25T03:12:47.344Z,101395.84
2022-12-25T03:15:33.161Z,101402.19
2022-12-25T03:18:05.685Z,101397.66
2022-12-25T03:20:52.385Z,101396.19
2022-12-25T03:23:41.253Z,101400.47
2022-12-25T03:26:27.386Z,101404.97
2022-12-25T03:28:55.465Z,101404.22
2022-12-25T03:31:40.281Z,101379.06
2022-12-25T03:34:50.131Z,101402.19
2022-12-25T03:37:55.675Z,101413.03
2022-12-25T03:40:50.132Z,101413.88
2022-12-25T03:43:43.556Z,101411.41
2022-12-25T03:46:34.089Z,101413.03
2022-12-25T03:49:26.386Z,101414.75
2022-12-25T03:52:17.667Z,101419.25
2022-12-25T03:55:07.037Z,101423.75
2022-12-25T03:57:53.300Z,101417.66
2022-12-25T04:00:39.096Z,101411.75
2022-12-25T04:03:24.519Z,101418.59
2022-12-25T04:06:09.914Z,101423.88
2022-12-25T04:08:56.641Z,101429.25
2022-12-25T04:11:41.870Z,101429.56
2022-12-25T04:14:26.367Z,101438.56
2022-12-25T04:17:11.859Z,101439.53
2022-12-25T04:19:57.288Z,101445.03
2022-12-25T04:22:42.626Z,101441.47
2022-12-25T04:25:29.710Z,101440.59
2022-12-25T04:28:22.089Z,101438.78
2022-12-25T04:31:07.627Z,101445.97
2022-12-25T04:34:01.453Z,101430.72
2022-12-25T04:36:29.560Z,101429.13
2022-12-25T04:38:57.546Z,101436.00
2022-12-25T04:41:26.971Z,101432.47
2022-12-25T04:43:54.893Z,101434.41
2022-12-25T04:46:23.014Z,101438.91
2022-12-25T04:48:51.004Z,101434.50
2022-12-25T04:51:21.018Z,101446.84
2022-12-25T04:53:49.974Z,101462.19
2022-12-25T04:56:18.717Z,101458.56
2022-12-25T04:58:48.328Z,101451.25
2022-12-25T05:01:17.176Z,101444.28
2022-12-25T05:03:45.294Z,101439.78
2022-12-25T05:06:14.140Z,101441.38
2022-12-25T05:08:42.050Z,101438.69
2022-12-25T05:11:11.976Z,101432.09
2022-12-25T05:13:40.672Z,101438.41
2022-12-25T05:16:13.015Z,101452.19
2022-12-25T05:18:41.365Z,101443.34
2022-12-25T05:21:10.661Z,101459.56
2022-12-25T05:23:48.291Z,101471.84
2022-12-25T05:26:17.518Z,101471.09
2022-12-25T05:28:45.562Z,101473.78
2022-12-25T05:31:15.175Z,101480.84
2022-12-25T05:33:43.093Z,101478.34
2022-12-25T05:36:13.505Z,101481.84
2022-12-25T05:38:41.456Z,101480.19
2022-12-25T05:41:09.858Z,101486.63
2022-12-25T05:43:37.863Z,101490.25
2022-12-25T05:46:07.552Z,101482.22
2022-12-25T05:48:38.265Z,101483.06
2022-12-25T05:51:07.590Z,101479.53
2022-12-25T05:53:36.362Z,101483.16
2022-12-25T05:56:05.255Z,101486.84
2022-12-25T05:58:34.013Z,101484.03
2022-12-25T06:01:02.268Z,101493.81
2022-12-25T06:03:30.413Z,101502.72
2022-12-25T06:05:59.910Z,101505.28
2022-12-25T06:08:27.845Z,101508.09
2022-12-25T06:10:55.917Z,101502.94
2022-12-25T06:13:23.782Z,101504.63
2022-12-25T06:15:51.929Z,101512.78
2022-12-25T06:18:19.863Z,101512.13
2022-12-25T06:20:47.914Z,101511.38
2022-12-25T06:23:17.226Z,101509.56
2022-12-25T06:25:45.214Z,101521.16
2022-12-25T06:28:13.171Z,101512.13
2022-12-25T06:30:41.113Z,101520.19
2022-12-25T06:33:09.080Z,101526.53
2022-12-25T06:35:40.311Z,101523.84
2022-12-25T06:38:08.408Z,101532.97
2022-12-25T06:40:37.830Z,101538.13
2022-12-25T06:43:05.912Z,101539.94
2022-12-25T06:45:36.097Z,101533.41
2022-12-25T06:48:04.369Z,101529.84
2022-12-25T06:50:32.294Z,101537.06
2022-12-25T06:53:00.227Z,101517.28
2022-12-25T06:55:28.573Z,101526.09
2022-12-25T06:57:57.857Z,101528.69
2022-12-25T07:00:25.846Z,101517.09
2022-12-25T07:02:54.015Z,101532.25
2022-12-25T07:05:22.062Z,101540.28
2022-12-25T07:07:50.061Z,101551.88
2022-12-25T07:10:18.173Z,101549.28
2022-12-25T07:12:46.129Z,101501.22
2022-12-25T07:15:15.588Z,101548.53
2022-12-25T07:17:43.640Z,101555.84
2022-12-25T07:20:11.849Z,101559.34
2022-12-25T07:22:39.801Z,101561.22
2022-12-25T07:25:08.527Z,101562.91
2022-12-25T07:27:36.464Z,101561.97
2022-12-25T07:30:04.991Z,101561.09
2022-12-25T07:32:34.476Z,101551.22
2022-12-25T07:35:02.436Z,101553.78
2022-12-25T07:37:30.377Z,101555.53
2022-12-25T07:39:58.494Z,101551.88
2022-12-25T07:42:26.408Z,101557.22
2022-12-25T07:44:55.626Z,101559.91
2022-12-25T07:47:23.551Z,101570.75
2022-12-25T07:49:52.910Z,101570.00
2022-12-25T07:52:20.864Z,101569.34
2022-12-25T07:54:48.954Z,101574.81
2022-12-25T07:57:16.879Z,101574.72
2022-12-25T07:59:44.942Z,101574.72
2022-12-25T08:02:13.251Z,101564.16
2022-12-25T08:04:41.242Z,101574.91
2022-12-25T08:07:10.718Z,101580.19
2022-12-25T08:09:38.747Z,101579.31
2022-12-25T08:12:07.382Z,101574.81
2022-12-25T08:14:35.306Z,101577.31
2022-12-25T08:17:03.471Z,101548.50
2022-12-25T08:19:31.536Z,101568.28
2022-12-25T08:21:59.470Z,101572.78
2022-12-25T08:24:28.815Z,101571.94
2022-12-25T08:26:57.950Z,101581.69
2022-12-25T08:29:26.001Z,101580.75
2022-12-25T08:31:54.885Z,101578.06
2022-12-25T08:34:22.846Z,101589.66
2022-12-25T08:36:50.946Z,101586.09
2022-12-25T08:39:19.030Z,101591.56
2022-12-25T08:41:48.352Z,101598.66
2022-12-25T08:44:16.285Z,101596.16
2022-12-25T08:46:44.290Z,101583.81
2022-12-25T08:49:12.386Z,101577.59
2022-12-25T08:51:40.409Z,101582.13
2022-12-25T08:54:08.478Z,101583.16
2022-12-25T08:56:36.632Z,101559.16
2022-12-25T08:59:06.064Z,101577.78
2022-12-25T09:01:34.206Z,101579.72
2022-12-25T09:04:02.321Z,101585.09
2022-12-25T09:06:30.382Z,101593.03
2022-12-25T09:08:58.371Z,101589.50
2022-12-25T09:11:26.495Z,101590.44
2022-12-25T09:13:54.415Z,101596.69
2022-12-25T09:16:24.395Z,101572.56
2022-12-25T09:18:52.426Z,101601.28
2022-12-25T09:21:20.739Z,101605.78
2022-12-25T09:23:48.874Z,101602.44
2022-12-25T09:26:19.086Z,101612.97
2022-12-25T09:28:51.799Z,101615.75
2022-12-25T09:31:21.187Z,101613.16
2022-12-25T09:33:50.966Z,101602.34
2022-12-25T09:36:21.488Z,101602.34
2022-12-25T09:38:49.453Z,101604.06
2022-12-25T09:41:21.055Z,101604.84
2022-12-25T09:43:52.545Z,101607.53
2022-12-25T09:46:23.229Z,101605.78
2022-12-25T09:49:03.090Z,101612.88
2022-12-25T09:51:35.609Z,101610.41
2022-12-25T09:54:07.985Z,101610.41
2022-12-25T09:56:36.117Z,101611.47
2022-12-25T09:59:04.589Z,101615.00
2022-12-25T10:01:39.386Z,101607.91
2022-12-25T10:04:23.875Z,101612.31
2022-12-25T10:07:04.794Z,101618.53
2022-12-25T10:09:49.882Z,101617.69
2022-12-25T10:12:30.854Z,101606.09
2022-12-25T10:15:12.799Z,101609.72
2022-12-25T10:17:55.566Z,101611.47
2022-12-25T10:20:41.490Z,101603.59
2022-12-25T10:23:15.619Z,101593.06
2022-12-25T10:25:46.054Z,101599.19
2022-12-25T10:28:16.483Z,101594.63
2022-12-25T10:30:46.037Z,101590.94
2022-12-25T10:33:17.386Z,101600.94
2022-12-25T10:35:47.193Z,101599.19
2022-12-25T10:38:17.992Z,101602.75
2022-12-25T10:41:01.219Z,101604.47
2022-12-25T10:43:36.632Z,101605.41
2022-12-25T10:46:12.863Z,101606.19
2022-12-25T10:48:44.532Z,101609.84
2022-12-25T10:51:14.412Z,101619.59
2022-12-25T10:53:44.035Z,101620.56
2022-12-25T10:56:18.519Z,101619.50
2022-12-25T10:58:46.911Z,101613.16
2022-12-25T11:01:15.468Z,101622.06
2022-12-25T11:03:46.898Z,101627.38
2022-12-25T11:06:28.529Z,101627.44
2022-12-25T11:08:58.592Z,101628.50
2022-12-25T11:11:27.898Z,101624.13
2022-12-25T11:13:58.668Z,101620.38
2022-12-25T11:16:30.283Z,101613.16
2022-12-25T11:18:59.376Z,101607.78
2022-12-25T11:21:30.729Z,101599.66
2022-12-25T11:24:00.693Z,101598.91
2022-12-25T11:26:30.386Z,101595.69
2022-12-25T11:28:59.618Z,101589.44
2022-12-25T11:31:37.133Z,101592.41
2022-12-25T11:34:08.921Z,101586.41
2022-12-25T11:36:45.492Z,101595.06
2022-12-25T11:39:23.081Z,101590.69
2022-12-25T11:41:54.953Z,101593.69
2022-12-25T11:44:37.653Z,101595.50
2022-12-25T11:47:13.000Z,101593.00
2022-12-25T11:49:49.872Z,101585.84
2022-12-25T11:52:22.053Z,101589.47
2022-12-25T11:54:58.006Z,101579.34
2022-12-25T11:57:30.328Z,101589.75
2022-12-25T12:00:06.735Z,101592.44
2022-12-25T12:02:40.198Z,101596.19
2022-12-25T12:05:19.030Z,101604.31
2022-12-25T12:07:58.367Z,101604.41
2022-12-25T12:10:38.435Z,101595.69
2022-12-25T12:13:33.375Z,101594.75
2022-12-25T12:16:01.586Z,101600.00
2022-12-25T12:18:34.429Z,101603.94
2022-12-25T12:21:05.695Z,101565.56
2022-12-25T12:23:38.389Z,101586.59
2022-12-25T12:26:06.838Z,101587.53
2022-12-25T12:28:46.060Z,101588.22
2022-12-25T12:31:14.923Z,101583.72
2022-12-25T12:33:49.740Z,101583.72
2022-12-25T12:36:25.142Z,101589.72
2022-12-25T12:39:06.068Z,101587.03
2022-12-25T12:41:47.037Z,101594.03
2022-12-25T12:44:17.632Z,101589.63
2022-12-25T12:46:53.387Z,101590.38
2022-12-25T12:49:27.358Z,101595.88
2022-12-25T12:52:05.437Z,101614.53
2022-12-25T12:54:49.874Z,101609.09
2022-12-25T12:57:25.324Z,101597.50
2022-12-25T12:59:53.494Z,101595.69
2022-12-25T13:02:52.985Z,101592.88
2022-12-25T13:05:34.225Z,101591.16
2022-12-25T13:08:13.923Z,101582.34
2022-12-25T13:10:48.256Z,101594.69
2022-12-25T13:13:21.427Z,101588.47
2022-12-25T13:15:51.803Z,101585.78
2022-12-25T13:18:20.490Z,101573.34
2022-12-25T13:20:55.096Z,101582.25
2022-12-25T13:23:28.295Z,101541.19
2022-12-25T13:25:59.451Z,101557.25
2022-12-25T13:28:29.349Z,101559.16
2022-12-25T13:31:07.683Z,101558.50
2022-12-25T13:33:35.993Z,101566.00
2022-12-25T13:36:04.266Z,101560.72
2022-12-25T13:38:32.530Z,101553.66
2022-12-25T13:41:24.913Z,101556.22
2022-12-25T13:43:54.115Z,101554.78
2022-12-25T13:46:27.264Z,101561.78
2022-12-25T13:49:00.281Z,101555.53
2022-12-25T13:51:29.262Z,101534.59
2022-12-25T13:54:07.005Z,101546.47
2022-12-25T13:56:36.497Z,101541.94
2022-12-25T13:59:04.911Z,101540.13
2022-12-25T14:01:32.984Z,101535.53
2022-12-25T14:04:01.444Z,101536.31
2022-12-25T14:06:31.142Z,101535.31
2022-12-25T14:09:00.651Z,101537.81
2022-12-25T14:11:30.714Z,101536.00
2022-12-25T14:14:04.899Z,101528.91
2022-12-25T14:16:33.524Z,101533.13
2022-12-25T14:19:03.569Z,101498.41
2022-12-25T14:21:34.753Z,101525.06
2022-12-25T14:24:02.971Z,101522.38
2022-12-25T14:26:33.744Z,101518.63
2022-12-25T14:29:16.821Z,101512.41
2022-12-25T14:31:46.880Z,101511.66
2022-12-25T14:34:19.652Z,101510.78
2022-12-25T14:36:48.884Z,101506.50
2022-12-25T14:39:32.675Z,101500.16
2022-12-25T14:42:03.058Z,101504.69
2022-12-25T14:44:38.808Z,101503.69
2022-12-25T14:47:14.900Z,101502.94
2022-12-25T14:49:43.589Z,101509.91
2022-12-25T14:52:18.459Z,101488.47
2022-12-25T14:54:49.006Z,101488.47
2022-12-25T14:57:28.212Z,101496.63
2022-12-25T15:00:01.566Z,101491.34
2022-12-25T15:02:45.616Z,101487.81
2022-12-25T15:05:32.602Z,101487.91
2022-12-25T15:08:22.651Z,101488.03
2022-12-25T15:11:01.284Z,101480.25
2022-12-25T15:13:31.428Z,101453.44
2022-12-25T15:16:04.691Z,101454.13
2022-12-25T15:18:37.397Z,101455.41
2022-12-25T15:21:05.785Z,101463.19
2022-12-25T15:23:33.863Z,101455.88
2022-12-25T15:26:01.821Z,101460.25
2022-12-25T15:28:29.732Z,101467.91
2022-12-25T15:30:57.749Z,101476.19
2022-12-25T15:33:27.059Z,101464.38
2022-12-25T15:35:55.108Z,101470.91
2022-12-25T15:38:23.121Z,101469.09
2022-12-25T15:40:51.045Z,101467.38
2022-12-25T15:43:39.884Z,101465.97
2022-12-25T15:46:07.055Z,101471.56
2022-12-25T15:48:36.370Z,101468.22
2022-12-25T15:51:04.385Z,101465.13
2022-12-25T15:53:32.430Z,101465.53
2022-12-25T15:56:00.468Z,101467.03
2022-12-25T15:58:28.479Z,101463.09
2022-12-25T16:00:56.382Z,101471.78
2022-12-25T16:03:24.314Z,101466.84
2022-12-25T16:05:54.688Z,101464.34
2022-12-25T16:08:22.927Z,101466.47
2022-12-25T16:10:51.077Z,101466.03
2022-12-25T16:13:18.973Z,101468.16
2022-12-25T16:15:47.167Z,101465.03
2022-12-25T16:18:15.340Z,101455.88
2022-12-25T16:20:43.458Z,101455.53
2022-12-25T16:23:12.754Z,101455.81
2022-12-25T16:25:40.906Z,101453.66
2022-12-25T16:28:10.376Z,101450.22
2022-12-25T16:30:38.885Z,101457.19
2022-12-25T16:33:07.771Z,101456.56
2022-12-25T16:35:36.005Z,101459.59
2022-12-25T16:38:04.285Z,101450.88
2022-12-25T16:40:33.608Z,101440.25
2022-12-25T16:43:01.581Z,101443.03
2022-12-25T16:45:29.600Z,101439.03
2022-12-25T16:47:57.641Z,101443.03
2022-12-25T16:50:25.751Z,101436.56
2022-12-25T16:52:53.702Z,101431.78
2022-12-25T16:55:26.277Z,101434.38
2022-12-25T16:57:58.881Z,101427.25
2022-12-25T17:00:27.047Z,101421.75
2022-12-25T17:02:56.213Z,101410.16
2022-12-25T17:05:24.975Z,101401.31
2022-12-25T17:07:53.084Z,101401.47
2022-12-25T17:10:21.451Z,101400.72
2022-12-25T17:12:49.552Z,101393.63
2022-12-25T17:15:19.058Z,101389.97
2022-12-25T17:17:47.063Z,101385.53
2022-12-25T17:20:15.035Z,101387.28
2022-12-25T17:22:42.892Z,101390.69
2022-12-25T17:25:11.093Z,101383.16
2022-12-25T17:27:39.071Z,101385.50
2022-12-25T17:30:09.090Z,101377.59
2022-12-25T17:32:38.580Z,101368.22
2022-12-25T17:35:07.188Z,101367.84
2022-12-25T17:37:35.359Z,101358.06
2022-12-25T17:40:03.500Z,101354.41
2022-12-25T17:42:31.435Z,101350.38
2022-12-25T17:44:59.496Z,101345.59
2022-12-25T17:47:27.522Z,101341.94
2022-12-25T17:49:56.987Z,101343.75
2022-12-25T17:52:25.017Z,101338.16
2022-12-25T17:54:53.061Z,101331.91
2022-12-25T17:57:21.115Z,101330.94
2022-12-25T17:59:50.138Z,101336.69
2022-12-25T18:02:18.699Z,101332.28
2022-12-25T18:04:48.102Z,101337.06
2022-12-25T18:07:17.584Z,101344.03
2022-12-25T18:09:45.647Z,101339.88
2022-12-25T18:12:13.685Z,101345.25
2022-12-25T18:14:41.633Z,101349.66
2022-12-25T18:17:09.902Z,101349.44
2022-12-25T18:22:05.630Z,101339.75
2022-12-25T18:24:34.974Z,101344.91
2022-12-25T18:27:03.039Z,101337.44
2022-12-25T18:29:30.971Z,101324.84
2022-12-25T18:31:58.931Z,101317.50
2022-12-25T18:34:27.376Z,101319.31
2022-12-25T18:37:02.646Z,101318.38
2022-12-25T18:39:30.937Z,101328.25
2022-12-25T18:42:18.639Z,101327.53
2022-12-25T18:44:46.746Z,101325.81
2022-12-25T18:47:14.713Z,101326.66
2022-12-25T18:49:42.828Z,101321.41
2022-12-25T18:52:48.825Z,101322.00
2022-12-25T18:54:58.856Z,101312.34
2022-12-25T18:57:28.190Z,101306.97
2022-12-25T18:59:56.155Z,101312.34
2022-12-25T19:02:24.240Z,101310.38
2022-12-25T19:04:52.535Z,101305.84
2022-12-25T19:07:22.601Z,101312.25
2022-12-25T19:09:51.373Z,101304.41
2022-12-25T19:12:19.463Z,101312.47
2022-12-25T19:14:48.738Z,101307.97
2022-12-25T19:17:16.872Z,101306.09
2022-12-25T19:19:45.209Z,101296.44
2022-12-25T19:22:13.679Z,101293.88
2022-12-25T19:24:41.749Z,101283.09
2022-12-25T19:27:09.736Z,101282.97
2022-12-25T19:29:37.685Z,101289.22
2022-12-25T19:32:07.354Z,101289.84
2022-12-25T19:34:35.459Z,101289.94
2022-12-25T19:37:03.873Z,101286.16
2022-12-25T19:39:31.888Z,101286.06
2022-12-25T19:41:59.879Z,101280.31
2022-12-25T19:44:27.845Z,101279.34
2022-12-25T19:46:55.886Z,101269.44
2022-12-25T19:49:25.357Z,101267.31
2022-12-25T19:51:53.309Z,101266.34
2022-12-25T19:54:21.425Z,101268.91
2022-12-25T19:56:49.807Z,101240.16
2022-12-25T19:59:17.839Z,101261.56
2022-12-25T20:01:45.934Z,101256.66
2022-12-25T20:04:14.347Z,101254.56
2022-12-25T20:06:43.793Z,101254.09
2022-12-25T20:09:15.243Z,101253.06
2022-12-25T20:11:43.981Z,101249.41
2022-12-25T20:14:13.707Z,101247.34
2022-12-25T20:16:42.058Z,101247.34
2022-12-25T20:19:12.720Z,101247.91
2022-12-25T20:21:40.728Z,101264.94
2022-12-25T20:24:11.277Z,101259.56
2022-12-25T20:26:40.268Z,101263.13
2022-12-25T20:29:08.616Z,101258.44
2022-12-25T20:31:37.154Z,101259.31
2022-12-25T20:34:08.726Z,101256.47
2022-12-25T20:36:37.954Z,101251.09
2022-12-25T20:39:09.651Z,101251.09
2022-12-25T20:41:40.616Z,101237.75
2022-12-25T20:44:10.035Z,101239.59
2022-12-25T20:46:38.476Z,101236.16
2022-12-25T20:49:06.700Z,101237.63
2022-12-25T20:51:34.618Z,101235.66
2022-12-25T20:54:07.381Z,101242.66
2022-12-25T20:56:35.610Z,101241.53
2022-12-25T20:59:04.972Z,101238.84
2022-12-25T21:01:33.129Z,101237.13
2022-12-25T21:04:01.286Z,101220.22
2022-12-25T21:06:29.240Z,101227.69
2022-12-25T21:08:57.507Z,101223.16
2022-12-25T21:11:25.527Z,101215.59
2022-12-25T21:13:53.655Z,101216.44
2022-12-25T21:16:23.830Z,101214.00
2022-12-25T21:18:53.685Z,101210.19
2022-12-25T21:21:22.249Z,101212.78
2022-12-25T21:23:50.409Z,101209.09
2022-12-25T21:26:20.333Z,101204.16
2022-12-25T21:28:48.865Z,101206.03
2022-12-25T21:31:17.532Z,101201.09
2022-12-25T21:33:52.076Z,101197.63
2022-12-25T21:36:24.427Z,101195.13
2022-12-25T21:38:58.455Z,101188.41
2022-12-25T21:41:27.461Z,101190.44
2022-12-25T21:43:56.420Z,101187.09
2022-12-25T21:46:24.942Z,101184.75
2022-12-25T21:48:55.163Z,101177.56
2022-12-25T21:51:42.835Z,101183.16
2022-12-25T21:54:11.813Z,101180.63
2022-12-25T21:56:44.892Z,101175.28
2022-12-25T21:59:16.153Z,101177.19
2022-12-25T22:01:45.224Z,101178.50
2022-12-25T22:04:16.400Z,101169.47
2022-12-25T22:07:03.440Z,101171.47
2022-12-25T22:09:31.981Z,101165.69
2022-12-25T22:12:17.980Z,101170.38
2022-12-25T22:14:55.213Z,101112.47
2022-12-25T22:17:43.376Z,101159.06
2022-12-25T22:20:16.899Z,101158.38
2022-12-25T22:22:45.285Z,101150.00
2022-12-25T22:25:13.875Z,101149.59
2022-12-25T22:27:43.774Z,101139.06
2022-12-25T22:30:14.415Z,101145.06
2022-12-25T22:32:42.456Z,101139.22
2022-12-25T22:35:13.172Z,101145.03
2022-12-25T22:37:41.877Z,101139.34
2022-12-25T22:40:12.538Z,101131.84
2022-12-25T22:42:41.737Z,101130.97
2022-12-25T22:45:10.980Z,101128.00
2022-12-25T22:47:39.252Z,101138.66
2022-12-25T22:50:08.200Z,101122.31
2022-12-25T22:52:38.058Z,101121.16
2022-12-25T22:55:08.201Z,101118.03
2022-12-25T22:57:36.481Z,101113.91
2022-12-25T23:00:05.185Z,101110.34
2022-12-25T23:02:35.161Z,101104.66
2022-12-25T23:05:03.635Z,101113.47
2022-12-25T23:07:31.676Z,101100.66
2022-12-25T23:10:01.199Z,101095.13
2022-12-25T23:12:46.594Z,101091.53
2022-12-25T23:15:14.626Z,101089.72
2022-12-25T23:18:00.048Z,101093.13
2022-12-25T23:20:45.452Z,101091.41
2022-12-25T23:23:34.159Z,101096.72
2022-12-25T23:26:09.426Z,101097.72
2022-12-25T23:28:55.157Z,101093.56
2022-12-25T23:31:26.028Z,101090.16
2022-12-25T23:33:54.169Z,101089.53
2022-12-25T23:36:22.259Z,101083.44
2022-12-25T23:38:51.536Z,101091.13
2022-12-25T23:41:21.047Z,101099.78
2022-12-25T23:43:49.093Z,101100.63
2022-12-25T23:46:17.151Z,101093.38
2022-12-25T23:48:45.336Z,101095.41
2022-12-25T23:51:13.465Z,101095.00
2022-12-25T23:53:41.452Z,101093.88
2022-12-25T23:56:10.588Z,101100.84
2022-12-25T23:58:40.809Z,101101.66
